Time;durP1;ratioP1;P1;durP2;ratioP2;P2;SDS_P1;SDS_P2;PMS_P1;PMS_P2;Temp;Humidity;BMP_temperature;BMP_pressure;BME280_temperature;BME280_humidity;BME280_pressure;Samples;Min_cycle;Max_cycle;Signal;HPM_P1;HPM_P2
2023/01/15 00:00:37;;;;;;;13.02;1.40;;;;;;;10.97;55.06;99866.69;5023362;28;20699;-41
2023/01/15 00:03:03;;;;;;;8.68;1.60;;;;;;;10.80;55.31;99863.25;5020732;28;20128;-43
2023/01/15 00:05:28;;;;;;;11.98;1.83;;;;;;;10.64;55.74;99877.22;5023893;28;20030;-40
2023/01/15 00:07:54;;;;;;;11.57;1.80;;;;;;;10.71;55.93;99871.13;5019624;28;20045;-42
2023/01/15 00:10:19;;;;;;;15.50;1.80;;;;;;;10.72;54.89;99872.88;5022909;28;20037;-40
2023/01/15 00:12:44;;;;;;;9.07;1.42;;;;;;;10.64;55.77;99865.94;5023407;28;20503;-44
2023/01/15 00:15:10;;;;;;;9.43;1.95;;;;;;;11.07;55.23;99869.25;5020398;28;20065;-41
2023/01/15 00:17:35;;;;;;;15.77;2.10;;;;;;;10.45;56.44;99859.91;5023867;28;20549;-41
2023/01/15 00:20:00;;;;;;;12.45;1.65;;;;;;;10.91;55.44;99845.84;5022401;28;20033;-43
2023/01/15 00:22:27;;;;;;;17.00;2.08;;;;;;;10.68;55.90;99859.81;5028160;28;20124;-43
2023/01/15 00:27:39;;;;;;;15.48;1.88;;;;;;;10.77;53.33;99865.88;5025817;28;20056;-40
2023/01/15 00:30:07;;;;;;;10.27;1.80;;;;;;;10.36;53.55;99858.19;5025471;28;20045;-43
2023/01/15 00:32:33;;;;;;;8.45;1.73;;;;;;;10.62;53.89;99862.44;5028375;28;20045;-41
2023/01/15 00:34:58;;;;;;;11.00;1.60;;;;;;;10.74;53.86;99838.94;5026035;28;20236;-41
2023/01/15 00:37:24;;;;;;;11.05;1.45;;;;;;;10.92;52.64;99847.56;5026084;28;20511;-43
2023/01/15 00:39:49;;;;;;;12.85;1.83;;;;;;;10.72;52.81;99864.19;5022243;28;20033;-53
2023/01/15 00:42:16;;;;;;;15.80;1.73;;;;;;;10.32;52.97;99861.66;5020021;28;20089;-40
2023/01/15 00:44:41;;;;;;;12.85;2.17;;;;;;;10.52;53.01;99859.88;5023656;28;20128;-41
2023/01/15 00:47:08;;;;;;;14.95;2.03;;;;;;;10.81;52.72;99854.56;5019057;28;20136;-42
2023/01/15 00:49:33;;;;;;;12.05;1.75;;;;;;;10.68;53.02;99852.00;4993312;22;20131;-45
2023/01/15 00:51:58;;;;;;;12.90;1.70;;;;;;;10.23;53.06;99873.84;4968132;28;20425;-43
2023/01/15 00:54:24;;;;;;;15.75;1.85;;;;;;;10.39;52.83;99839.94;4978538;28;20035;-41
2023/01/15 00:56:49;;;;;;;10.68;1.58;;;;;;;10.61;52.12;99856.41;4980093;28;20064;-42
2023/01/15 00:59:14;;;;;;;11.93;1.58;;;;;;;10.55;53.10;99859.03;4981540;28;20030;-43
2023/01/15 01:01:40;;;;;;;11.20;1.70;;;;;;;10.84;52.39;99859.78;4981271;28;20045;-44
2023/01/15 01:04:05;;;;;;;12.63;2.00;;;;;;;10.42;52.60;99867.72;4982494;28;20037;-40
2023/01/15 01:06:31;;;;;;;9.55;1.73;;;;;;;10.45;53.17;99865.97;4978323;28;20038;-43
2023/01/15 01:08:56;;;;;;;10.18;1.63;;;;;;;10.50;53.09;99869.44;4980941;28;20038;-39
2023/01/15 01:11:25;;;;;;;11.20;1.80;;;;;;;10.58;53.63;99865.06;4980128;28;20519;-41
2023/01/15 01:13:51;;;;;;;11.98;1.92;;;;;;;11.11;52.84;99863.13;4980836;28;20065;-40
2023/01/15 01:16:21;;;;;;;10.75;1.77;;;;;;;10.82;53.50;99860.66;4977023;28;20049;-43
2023/01/15 01:18:47;;;;;;;14.02;1.60;;;;;;;10.68;53.76;99867.66;4981016;28;20080;-42
2023/01/15 01:21:12;;;;;;;14.48;2.03;;;;;;;10.75;53.53;99862.41;4977722;28;20039;-38
2023/01/15 01:23:37;;;;;;;14.18;1.80;;;;;;;10.78;54.01;99859.81;4979624;28;20038;-42
2023/01/15 01:26:03;;;;;;;11.15;1.60;;;;;;;10.48;54.39;99867.72;4977842;28;20449;-45
2023/01/15 01:28:28;;;;;;;13.18;1.90;;;;;;;10.71;54.08;99862.44;4979088;28;20045;-45
2023/01/15 01:30:53;;;;;;;9.35;1.70;;;;;;;10.47;54.04;99858.16;4979571;28;20045;-42
2023/01/15 01:33:18;;;;;;;12.93;1.75;;;;;;;10.68;53.75;99858.09;4976930;28;21027;-43
2023/01/15 01:35:48;;;;;;;12.27;1.90;;;;;;;10.35;53.13;99864.28;4980242;28;20581;-41
2023/01/15 01:38:14;;;;;;;9.23;1.55;;;;;;;10.58;52.76;99856.38;4982113;28;20053;-43
2023/01/15 01:40:40;;;;;;;8.63;1.55;;;;;;;10.83;52.30;99867.59;4977699;28;20030;-43
2023/01/15 01:43:20;;;;;;;9.18;1.42;;;;;;;10.52;52.77;99870.31;4976765;28;20065;-43
2023/01/15 01:45:46;;;;;;;13.50;1.90;;;;;;;10.63;52.47;99872.00;4980181;28;20602;-43
2023/01/15 01:48:13;;;;;;;9.27;1.50;;;;;;;11.03;51.82;99868.41;4976272;28;20129;-44
2023/01/15 01:50:39;;;;;;;8.90;1.63;;;;;;;10.68;52.94;99876.34;4979120;28;20121;-45
2023/01/15 01:53:09;;;;;;;12.48;2.00;;;;;;;10.53;52.88;99858.16;4978561;28;20122;-41
2023/01/15 01:55:35;;;;;;;12.60;1.88;;;;;;;10.42;53.21;99885.97;4979171;28;20054;-44
2023/01/15 01:58:04;;;;;;;13.90;1.80;;;;;;;10.52;52.87;99891.16;4980929;28;20061;-41
2023/01/15 02:00:31;;;;;;;13.90;2.00;;;;;;;10.56;52.86;99886.78;4978116;28;20038;-44
2023/01/15 02:02:58;;;;;;;12.85;1.75;;;;;;;10.47;52.69;99882.50;4981795;28;20401;-45
2023/01/15 02:05:30;;;;;;;13.95;2.22;;;;;;;10.56;53.01;99878.97;4985446;28;20042;-43
2023/01/15 02:07:56;;;;;;;12.73;1.83;;;;;;;10.31;53.45;99872.94;4982417;28;20050;-38
2023/01/15 02:10:21;;;;;;;18.20;2.00;;;;;;;10.64;53.08;99866.78;4982162;28;20077;-42
2023/01/15 02:12:59;;;;;;;13.30;1.48;;;;;;;10.52;52.68;99862.50;4983289;28;20084;-43
2023/01/15 02:15:34;;;;;;;10.77;1.58;;;;;;;10.51;53.47;99859.88;4982930;28;21881;-44
2023/01/15 02:18:14;;;;;;;15.13;1.80;;;;;;;10.27;53.92;99870.34;4980291;28;20030;-41
2023/01/15 02:21:06;;;;;;;12.10;2.00;;;;;;;10.58;52.95;99866.81;4982289;28;20549;-42
2023/01/15 02:23:59;;;;;;;11.23;1.70;;;;;;;10.65;53.35;99867.66;4982212;28;20035;-41
2023/01/15 02:26:45;;;;;;;11.50;1.67;;;;;;;10.64;53.68;99856.38;4986263;28;20119;-41
2023/01/15 02:29:22;;;;;;;14.88;1.92;;;;;;;10.24;54.08;99868.63;4983635;28;20385;-43
2023/01/15 02:31:50;;;;;;;10.20;1.90;;;;;;;10.20;54.08;99866.88;4982934;28;20125;-44
2023/01/15 02:34:24;;;;;;;15.32;2.30;;;;;;;10.25;54.58;99869.47;4979810;28;20038;-44
2023/01/15 02:36:57;;;;;;;10.85;1.70;;;;;;;10.09;54.09;99869.47;4983569;28;20039;-40
2023/01/15 02:39:25;;;;;;;13.25;1.80;;;;;;;10.24;54.69;99873.84;4981229;28;20046;-41
2023/01/15 02:41:52;;;;;;;13.98;2.08;;;;;;;10.13;53.88;99875.53;4996142;28;20437;-41
2023/01/15 02:44:21;;;;;;;6.43;1.52;;;;;;;10.13;53.29;99879.00;4984693;28;20554;-42
2023/01/15 02:46:47;;;;;;;9.77;1.65;;;;;;;10.15;52.57;99869.47;4982045;28;20037;-44
2023/01/15 02:49:17;;;;;;;11.25;1.70;;;;;;;10.39;52.84;99873.81;4979379;28;20038;-44
2023/01/15 02:52:07;;;;;;;15.98;2.03;;;;;;;10.27;53.02;99866.00;4982958;28;20420;-43
2023/01/15 02:54:44;;;;;;;9.50;1.40;;;;;;;10.51;52.79;99865.09;4982243;28;20041;-41
2023/01/15 02:57:10;;;;;;;12.55;1.60;;;;;;;10.45;52.85;99865.97;4984254;28;20492;-44
2023/01/15 02:59:40;;;;;;;9.95;1.80;;;;;;;10.53;52.65;99864.22;4986775;28;20095;-43
2023/01/15 03:02:11;;;;;;;11.00;1.70;;;;;;;10.55;51.63;99839.00;4983965;28;20087;-44
2023/01/15 03:04:43;;;;;;;7.95;1.50;;;;;;;10.16;52.73;99846.91;4985213;28;20038;-44
2023/01/15 03:07:21;;;;;;;8.13;1.48;;;;;;;10.06;53.02;99840.81;4984621;28;20035;-44
2023/01/15 03:09:48;;;;;;;8.88;1.42;;;;;;;10.40;52.62;99854.69;4984695;28;20043;-40
2023/01/15 03:12:25;;;;;;;10.52;1.63;;;;;;;10.50;52.59;99845.97;4982634;28;20060;-43
2023/01/15 03:14:56;;;;;;;15.95;1.75;;;;;;;10.37;52.60;99862.50;4979231;28;20062;-44
2023/01/15 03:17:27;;;;;;;16.13;1.80;;;;;;;10.44;52.74;99835.56;4979036;28;21423;-43
2023/01/15 03:19:57;;;;;;;7.45;1.50;;;;;;;10.31;53.03;99841.69;4982951;28;20086;-44
2023/01/15 03:22:30;;;;;;;12.38;1.77;;;;;;;10.14;54.35;99841.69;4978753;28;20122;-44
2023/01/15 03:25:17;;;;;;;11.15;1.50;;;;;;;10.21;54.15;99850.38;4984606;28;20034;-43
2023/01/15 03:27:43;;;;;;;14.30;2.00;;;;;;;10.00;54.42;99833.00;4981572;28;20143;-44
2023/01/15 03:30:15;;;;;;;10.70;1.67;;;;;;;10.15;54.60;99837.34;4982706;28;20511;-42
2023/01/15 03:32:40;;;;;;;8.10;1.60;;;;;;;10.10;53.90;99837.34;4983386;28;20049;-43
2023/01/15 03:35:27;;;;;;;7.38;1.40;;;;;;;10.22;53.30;99840.84;4982667;28;20030;-45
2023/01/15 03:37:52;;;;;;;15.23;1.50;;;;;;;10.21;53.13;99842.56;4983038;28;20050;-41
2023/01/15 03:40:18;;;;;;;10.70;1.92;;;;;;;10.27;53.27;99837.34;4986659;28;20037;-41
2023/01/15 03:45:47;;;;;;;10.70;1.52;;;;;;;10.13;52.09;99826.91;4979103;28;20079;-46
2023/01/15 03:48:55;;;;;;;13.95;1.52;;;;;;;10.31;52.07;99814.75;4978792;28;20042;-42
2023/01/15 03:51:36;;;;;;;8.48;1.30;;;;;;;9.81;52.85;99827.84;4986826;28;20061;-43
2023/01/15 03:54:03;;;;;;;11.77;1.67;;;;;;;10.27;52.23;99829.53;4976371;28;20041;-44
2023/01/15 03:57:18;;;;;;;11.15;1.80;;;;;;;10.12;52.02;99824.34;4982015;28;20125;-43
2023/01/15 03:59:52;;;;;;;16.45;1.90;;;;;;;10.17;52.08;99840.84;4999770;28;20037;-42
2023/01/15 04:02:20;;;;;;;12.35;1.70;;;;;;;10.35;52.45;99814.78;4979389;28;20037;-43
2023/01/15 04:04:47;;;;;;;12.05;1.30;;;;;;;10.41;52.76;99819.09;4981127;28;20030;-43
2023/01/15 04:07:13;;;;;;;7.85;1.50;;;;;;;10.27;53.49;99829.53;4978836;28;20381;-46
2023/01/15 04:09:39;;;;;;;7.63;1.50;;;;;;;10.07;53.95;99829.53;4981601;28;20046;-47
2023/01/15 04:12:05;;;;;;;11.18;1.50;;;;;;;10.44;53.36;99840.78;4980828;28;20083;-45
2023/01/15 04:14:32;;;;;;;11.48;1.70;;;;;;;10.13;53.20;99845.16;4978310;28;20125;-40
2023/01/15 04:16:57;;;;;;;8.75;1.30;;;;;;;10.14;53.83;99833.88;4979709;28;20095;-42
2023/01/15 04:19:23;;;;;;;7.72;1.40;;;;;;;10.02;53.58;99833.88;4980395;28;20042;-42
2023/01/15 04:21:48;;;;;;;11.27;1.40;;;;;;;10.52;52.81;99835.56;4980789;28;20038;-42
2023/01/15 04:24:14;;;;;;;10.35;1.50;;;;;;;10.17;53.66;99856.47;4977512;28;21598;-44
2023/01/15 04:26:39;;;;;;;10.82;1.90;;;;;;;10.54;52.96;99834.69;4982632;28;20045;-44
2023/01/15 04:29:04;;;;;;;7.75;1.40;;;;;;;10.68;52.64;99833.75;4979162;28;20038;-39
2023/01/15 04:31:32;;;;;;;13.15;1.70;;;;;;;10.64;53.04;99835.53;4979777;28;20045;-45
2023/01/15 04:33:58;;;;;;;10.55;1.58;;;;;;;10.12;53.82;99835.59;4981846;28;20030;-41
2023/01/15 04:36:23;;;;;;;7.40;1.30;;;;;;;10.00;52.89;99826.97;4979286;28;20495;-39
2023/01/15 04:38:48;;;;;;;9.80;1.42;;;;;;;10.00;52.66;99830.41;4980153;28;20030;-45
2023/01/15 04:44:06;;;;;;;9.77;1.75;;;;;;;9.99;51.91;99828.69;4980175;28;20053;-43
2023/01/15 04:46:41;;;;;;;16.30;1.60;;;;;;;10.16;51.73;99821.75;4978073;28;20083;-42
2023/01/15 04:49:12;;;;;;;14.15;1.98;;;;;;;10.22;52.30;99833.91;4978897;28;20171;-40
2023/01/15 04:51:38;;;;;;;9.93;1.85;;;;;;;10.06;52.21;99845.19;4977474;28;20034;-41
2023/01/15 04:54:06;;;;;;;10.27;1.60;;;;;;;9.84;51.19;99831.28;4977363;28;20031;-43
2023/01/15 04:56:35;;;;;;;12.25;1.70;;;;;;;9.84;50.21;99826.09;4980791;28;20038;-46
2023/01/15 04:59:01;;;;;;;12.15;1.50;;;;;;;10.03;49.83;99816.53;4980623;28;20050;-42
2023/01/15 05:01:26;;;;;;;9.43;1.58;;;;;;;9.91;49.62;99822.63;4978144;28;20072;-41
2023/01/15 05:03:52;;;;;;;7.45;1.30;;;;;;;10.12;49.04;99827.78;4979179;28;20490;-42
2023/01/15 05:06:17;;;;;;;8.32;1.55;;;;;;;10.00;48.75;99830.41;4978409;28;20504;-40
2023/01/15 05:08:43;;;;;;;8.77;1.20;;;;;;;10.04;48.17;99839.09;4980603;28;20056;-41
2023/01/15 05:11:08;;;;;;;9.98;1.52;;;;;;;9.66;49.13;99842.56;4979037;28;20054;-42
2023/01/15 05:13:34;;;;;;;11.32;1.48;;;;;;;9.70;49.05;99835.63;4977371;28;20077;-45
2023/01/15 05:16:15;;;;;;;13.32;1.27;;;;;;;9.83;48.82;99832.16;4981082;28;20023;-43
2023/01/15 05:18:42;;;;;;;12.77;1.50;;;;;;;9.75;48.96;99821.78;4977140;28;20042;-45
2023/01/15 05:21:22;;;;;;;8.18;1.30;;;;;;;9.85;49.46;99832.16;4980504;28;20519;-42
2023/01/15 05:23:49;;;;;;;10.65;1.65;;;;;;;9.74;49.57;99842.59;4976055;28;20034;-46
2023/01/15 05:26:15;;;;;;;10.82;1.60;;;;;;;9.78;49.16;99828.69;4980733;28;20026;-42
2023/01/15 05:28:41;;;;;;;8.38;1.60;;;;;;;9.51;49.49;99826.09;4977369;28;20036;-43
2023/01/15 05:31:11;;;;;;;9.20;1.35;;;;;;;9.59;48.79;99820.00;4977853;28;20038;-43
2023/01/15 05:33:37;;;;;;;10.77;1.52;;;;;;;9.67;48.52;99820.91;4979286;28;20121;-42
2023/01/15 05:36:05;;;;;;;11.60;1.40;;;;;;;9.70;48.96;99818.28;4976729;28;20065;-42
2023/01/15 05:38:31;;;;;;;8.73;1.38;;;;;;;9.76;49.41;99812.19;4984079;28;20046;-44
2023/01/15 05:40:56;;;;;;;13.90;1.40;;;;;;;9.47;48.88;99812.19;4983502;28;20504;-40
2023/01/15 05:43:22;;;;;;;6.10;1.45;;;;;;;9.39;48.79;99828.69;4980543;28;20509;-46
2023/01/15 05:45:47;;;;;;;10.65;1.50;;;;;;;9.88;47.93;99814.78;4983875;28;20038;-45
2023/01/15 05:48:12;;;;;;;5.47;0.98;;;;;;;9.68;47.56;99830.44;4982306;28;20072;-44
2023/01/15 05:50:38;;;;;;;8.52;1.45;;;;;;;9.28;48.46;99818.25;4982376;28;20512;-44
2023/01/15 05:53:03;;;;;;;9.43;1.35;;;;;;;9.12;49.27;99825.16;4984888;28;20455;-40
2023/01/15 05:55:28;;;;;;;14.70;1.40;;;;;;;9.79;48.13;99812.22;4981104;28;20034;-47
2023/01/15 05:57:53;;;;;;;9.00;1.60;;;;;;;9.16;49.33;99816.50;4988333;28;20542;-41
2023/01/15 06:00:19;;;;;;;13.55;1.33;;;;;;;9.36;48.78;99819.13;4980401;28;20045;-47
2023/01/15 06:02:48;;;;;;;13.75;1.65;;;;;;;9.39;48.97;99816.56;4984137;28;20134;-43
2023/01/15 06:05:18;;;;;;;6.93;1.10;;;;;;;9.39;48.41;99816.56;4981292;28;20113;-44
2023/01/15 06:07:44;;;;;;;9.93;1.30;;;;;;;9.40;48.45;99820.00;4986163;28;20083;-44
2023/01/15 06:10:09;;;;;;;8.40;1.23;;;;;;;9.52;48.58;99825.19;4982808;28;20035;-46
2023/01/15 06:12:34;;;;;;;13.57;1.45;;;;;;;9.35;49.01;99836.47;4982558;28;20488;-44
2023/01/15 06:15:00;;;;;;;13.98;2.65;;;;;;;9.42;49.30;99826.94;4986579;28;20519;-42
2023/01/15 06:17:25;;;;;;;9.98;1.83;;;;;;;8.97;49.23;99843.28;4983968;28;20053;-43
2023/01/15 06:19:50;;;;;;;15.23;1.70;;;;;;;9.35;48.86;99828.66;4986041;28;20046;-42
2023/01/15 06:22:17;;;;;;;7.93;1.50;;;;;;;9.51;48.72;99823.50;4981200;28;20058;-43
2023/01/15 06:24:42;;;;;;;11.60;1.60;;;;;;;9.47;48.99;99847.75;4983759;28;20566;-46
2023/01/15 06:27:07;;;;;;;10.60;1.45;;;;;;;9.46;49.16;99846.88;4980981;28;20046;-43
2023/01/15 06:29:33;;;;;;;7.75;1.27;;;;;;;9.40;49.43;99851.19;4982285;28;20092;-42
2023/01/15 06:31:58;;;;;;;9.50;1.35;;;;;;;9.21;49.76;99838.16;4984664;28;20038;-43
2023/01/15 06:34:23;;;;;;;9.80;1.35;;;;;;;9.14;49.84;99823.44;4986015;28;20045;-43
2023/01/15 06:36:49;;;;;;;9.20;1.30;;;;;;;9.71;49.07;99834.75;4985836;28;20488;-43
2023/01/15 06:39:15;;;;;;;9.40;1.30;;;;;;;9.75;48.78;99836.53;4983528;28;20054;-42
2023/01/15 06:47:20;;;;;;;10.13;1.23;;;;;;;9.75;49.33;99818.31;4980542;28;20069;-43
2023/01/15 06:52:28;;;;;;;11.20;1.45;;;;;;;9.64;49.78;99807.88;4993834;28;20091;-43
2023/01/15 06:54:54;;;;;;;7.80;1.50;;;;;;;9.52;50.72;99823.47;4998703;28;20038;-42
2023/01/15 06:57:19;;;;;;;10.15;1.60;;;;;;;9.53;50.43;99827.81;5003575;28;20030;-42
2023/01/15 06:59:46;;;;;;;9.98;1.58;;;;;;;9.59;50.31;99829.56;5003352;28;20400;-43
2023/01/15 07:02:11;;;;;;;13.30;1.60;;;;;;;9.51;50.35;99829.56;4997871;28;20165;-42
2023/01/15 07:04:37;;;;;;;13.13;1.42;;;;;;;9.64;49.91;99833.88;5002514;28;20049;-45
2023/01/15 07:07:02;;;;;;;11.85;1.55;;;;;;;9.16;50.04;99829.50;4998882;28;20050;-44
2023/01/15 07:09:28;;;;;;;11.32;1.60;;;;;;;9.76;49.83;99825.22;5001903;28;20034;-44
2023/01/15 07:11:53;;;;;;;12.38;1.40;;;;;;;9.86;49.83;99829.56;4997740;28;20033;-41
2023/01/15 07:14:21;;;;;;;13.63;1.88;;;;;;;9.60;51.03;99831.28;5002116;28;20037;-39
2023/01/15 07:16:47;;;;;;;12.40;1.95;;;;;;;9.70;50.93;99818.28;5001599;28;20432;-41
2023/01/15 07:19:13;;;;;;;11.32;1.83;;;;;;;9.88;50.63;99817.41;4997615;28;20040;-42
2023/01/15 07:21:38;;;;;;;7.25;1.52;;;;;;;9.61;51.07;99828.69;5001113;28;20164;-40
2023/01/15 07:24:04;;;;;;;14.25;1.70;;;;;;;9.66;51.06;99828.69;4997902;28;20114;-43
2023/01/15 07:26:29;;;;;;;15.68;1.70;;;;;;;9.76;51.02;99820.88;5001290;28;20044;-42
2023/01/15 07:28:55;;;;;;;15.32;1.80;;;;;;;9.81;51.54;99814.81;4997235;28;20054;-43
2023/01/15 07:31:20;;;;;;;14.85;1.83;;;;;;;9.60;51.13;99811.34;5000081;28;20038;-43
2023/01/15 07:33:46;;;;;;;8.40;1.40;;;;;;;9.57;51.12;99810.50;5001227;28;20400;-44
2023/01/15 07:36:11;;;;;;;11.77;1.27;;;;;;;9.68;51.19;99804.41;4997414;28;20090;-43
2023/01/15 07:38:36;;;;;;;13.02;1.70;;;;;;;9.46;51.87;99804.38;5000758;28;20124;-40
2023/01/15 07:51:58;;;;;;;11.07;1.73;;;;;;;9.66;51.84;99811.34;4995984;28;20087;-41
2023/01/15 07:54:24;;;;;;;13.90;1.50;;;;;;;9.88;51.45;99806.16;5000576;28;20034;-41
2023/01/15 07:56:51;;;;;;;11.40;1.50;;;;;;;9.91;51.03;99806.13;5001665;28;20056;-42
2023/01/15 07:59:17;;;;;;;14.93;2.03;;;;;;;9.89;51.11;99800.91;4996822;28;20465;-42
2023/01/15 08:01:42;;;;;;;12.30;1.65;;;;;;;9.91;51.08;99808.72;4999860;28;20042;-42
2023/01/15 08:04:08;;;;;;;14.05;1.52;;;;;;;9.98;50.50;99815.66;4996641;28;20074;-45
2023/01/15 08:06:34;;;;;;;11.65;1.77;;;;;;;9.99;50.58;99810.47;5000135;28;20037;-43
2023/01/15 08:08:59;;;;;;;11.05;1.70;;;;;;;9.99;50.82;99812.22;5011644;28;20523;-39
2023/01/15 08:16:53;;;;;;;;;;;;;;;9.93;51.60;99818.28;4997261;28;20526;-43
2023/01/15 08:19:18;;;;;;;5.57;1.33;;;;;;;10.12;51.29;99813.94;5000389;28;19913;-43
2023/01/15 08:21:44;;;;;;;12.55;1.90;;;;;;;10.14;52.50;99817.38;4999401;28;20034;-43
2023/01/15 08:24:09;;;;;;;6.90;1.10;;;;;;;10.01;53.03;99829.53;4996320;28;20536;-42
2023/01/15 08:26:34;;;;;;;8.63;1.80;;;;;;;9.60;53.95;99833.91;5000078;28;20086;-44
2023/01/15 08:29:00;;;;;;;10.43;1.63;;;;;;;9.50;55.91;99814.81;4995897;28;20318;-43
2023/01/15 08:31:25;;;;;;;10.80;1.60;;;;;;;9.99;54.26;99823.50;4999509;28;20057;-42
2023/01/15 08:33:51;;;;;;;13.57;1.77;;;;;;;9.93;53.72;99810.47;4997345;28;20420;-38
2023/01/15 08:36:17;;;;;;;10.23;1.48;;;;;;;9.63;54.67;99815.69;5000347;28;20082;-41
2023/01/15 08:38:42;;;;;;;9.85;1.65;;;;;;;9.97;52.96;99827.81;5000221;28;20034;-41
2023/01/15 08:41:08;;;;;;;9.90;1.20;;;;;;;9.92;52.94;99823.50;4993632;28;20038;-45
2023/01/15 08:43:34;;;;;;;11.20;1.60;;;;;;;9.86;52.62;99816.56;4999732;28;20038;-42
2023/01/15 08:46:01;;;;;;;8.23;1.55;;;;;;;9.80;52.34;99820.91;4994374;28;20045;-37
2023/01/15 08:48:28;;;;;;;12.90;1.50;;;;;;;9.88;52.83;99806.16;4999784;28;20385;-43
2023/01/15 08:50:53;;;;;;;13.30;1.70;;;;;;;9.70;53.21;99800.06;4995010;28;20057;-41
2023/01/15 08:53:19;;;;;;;10.10;1.20;;;;;;;9.62;53.46;99825.22;5000040;28;20033;-41
2023/01/15 08:55:45;;;;;;;11.30;1.50;;;;;;;9.86;53.37;99816.56;5001297;28;20061;-41
2023/01/15 08:58:11;;;;;;;8.23;1.38;;;;;;;9.82;53.42;99812.19;4998821;28;20369;-41
2023/01/15 09:00:36;;;;;;;10.63;1.40;;;;;;;10.10;52.68;99816.53;5001705;28;20036;-41
2023/01/15 09:03:02;;;;;;;13.82;1.50;;;;;;;10.03;53.58;99824.34;4997276;28;20038;-41
2023/01/15 09:05:28;;;;;;;10.60;1.55;;;;;;;9.89;53.14;99816.53;4998747;28;20049;-44
2023/01/15 09:07:54;;;;;;;8.32;1.38;;;;;;;9.96;53.77;99815.66;4995616;28;20038;-43
2023/01/15 09:10:19;;;;;;;9.85;1.60;;;;;;;10.09;52.79;99814.78;4998584;28;20069;-43
2023/01/15 09:12:45;;;;;;;8.60;1.45;;;;;;;10.31;52.87;99822.56;4999224;28;20412;-43
2023/01/15 09:15:10;;;;;;;11.23;1.30;;;;;;;10.19;53.25;99818.25;4996123;28;20038;-41
2023/01/15 09:17:39;;;;;;;12.85;1.55;;;;;;;10.00;53.33;99793.13;4999505;28;20504;-44
2023/01/15 09:20:06;;;;;;;9.48;1.42;;;;;;;10.07;53.14;99811.31;4995307;28;20103;-38
2023/01/15 09:22:31;;;;;;;12.40;1.38;;;;;;;9.67;54.05;99825.22;4998389;28;20525;-48
2023/01/15 09:24:57;;;;;;;9.50;1.73;;;;;;;9.92;53.19;99813.94;4995854;28;20070;-41
2023/01/15 09:27:23;;;;;;;9.73;1.38;;;;;;;10.22;52.51;99830.44;4999028;28;20041;-46
2023/01/15 09:29:48;;;;;;;13.40;1.60;;;;;;;10.25;52.15;99820.84;4997726;28;20515;-44
2023/01/15 09:32:13;;;;;;;12.88;1.73;;;;;;;10.42;51.76;99810.41;4995016;28;20405;-42
2023/01/15 09:34:38;;;;;;;17.80;1.55;;;;;;;10.23;53.42;99814.81;4999751;28;20045;-43
2023/01/15 09:37:04;;;;;;;10.65;1.40;;;;;;;10.02;53.41;99810.44;4995616;28;20064;-42
2023/01/15 09:39:29;;;;;;;15.05;1.70;;;;;;;10.51;52.18;99810.38;4999173;28;20034;-41
2023/01/15 09:42:07;;;;;;;14.02;1.80;;;;;;;10.08;53.12;99809.56;4994962;28;20087;-42
2023/01/15 09:44:43;;;;;;;11.13;1.67;;;;;;;10.36;52.92;99811.31;5000474;28;20109;-43
2023/01/15 09:47:08;;;;;;;15.50;1.73;;;;;;;10.41;53.47;99813.88;4997543;28;20132;-40
2023/01/15 09:49:49;;;;;;;12.48;1.45;;;;;;;10.26;53.50;99819.13;5000740;28;20129;-42
2023/01/15 09:52:22;;;;;;;23.08;2.28;;;;;;;10.37;53.66;99817.38;4996083;28;20046;-45
2023/01/15 09:55:06;;;;;;;12.93;1.65;;;;;;;10.21;53.58;99815.66;4999258;28;20045;-43
2023/01/15 09:57:32;;;;;;;13.25;1.58;;;;;;;10.50;53.25;99826.88;4995731;28;20038;-43
2023/01/15 10:00:01;;;;;;;11.13;2.03;;;;;;;10.60;52.94;99827.72;4995281;28;20522;-41
2023/01/15 10:02:38;;;;;;;19.50;1.80;;;;;;;10.33;53.57;99824.31;4998128;28;20086;-41
2023/01/15 10:05:14;;;;;;;8.75;1.52;;;;;;;10.39;53.77;99828.63;4995138;28;20045;-44
2023/01/15 10:08:00;;;;;;;9.85;1.50;;;;;;;10.45;52.85;99829.50;4998610;28;20042;-43
2023/01/15 10:10:33;;;;;;;11.18;1.77;;;;;;;10.33;52.15;99831.25;4994341;28;20046;-41
2023/01/15 10:13:15;;;;;;;11.98;1.90;;;;;;;10.60;51.74;99841.63;4995155;28;20102;-42
2023/01/15 10:15:45;;;;;;;12.13;2.05;;;;;;;10.30;52.05;99836.50;4998623;28;20104;-44
2023/01/15 10:18:21;;;;;;;15.27;1.90;;;;;;;10.47;51.51;99839.91;4994928;28;20403;-45
2023/01/15 10:21:04;;;;;;;13.25;1.73;;;;;;;10.37;50.78;99817.38;4998006;28;20042;-41
2023/01/15 10:23:56;;;;;;;12.13;1.38;;;;;;;10.34;51.39;99846.03;4996706;28;20034;-38
2023/01/15 10:26:36;;;;;;;11.80;1.48;;;;;;;10.26;51.06;99847.78;4998101;28;20042;-42
2023/01/15 10:29:16;;;;;;;12.63;2.97;;;;;;;10.56;49.93;99847.69;4997901;28;20572;-41
2023/01/15 10:31:50;;;;;;;12.65;1.45;;;;;;;10.33;50.33;99865.13;5001482;28;20044;-44
2023/01/15 10:34:38;;;;;;;10.63;1.52;;;;;;;10.36;51.51;99844.31;4998496;28;20040;-44
2023/01/15 10:37:14;;;;;;;7.63;1.20;;;;;;;10.51;51.22;99845.13;4998223;28;20037;-42
2023/01/15 10:40:14;;;;;;;9.60;1.15;;;;;;;10.16;51.75;99855.63;5002361;28;20037;-43
2023/01/15 10:43:01;;;;;;;14.35;1.90;;;;;;;10.43;51.23;99857.28;4998078;28;20129;-43
2023/01/15 10:45:32;;;;;;;12.38;1.60;;;;;;;10.51;51.24;99860.75;4998228;28;20449;-42
2023/01/15 10:48:10;;;;;;;11.88;1.60;;;;;;;10.49;52.19;99859.88;4997861;28;20033;-44
2023/01/15 10:50:36;;;;;;;9.27;1.55;;;;;;;10.78;51.45;99861.53;5000857;28;20052;-40
2023/01/15 10:53:11;;;;;;;16.10;1.63;;;;;;;10.45;52.00;99867.72;4998300;28;20125;-41
2023/01/15 10:55:52;;;;;;;11.60;1.77;;;;;;;10.47;52.10;99859.03;5003524;28;20137;-44
2023/01/15 10:59:00;;;;;;;19.17;1.40;;;;;;;10.61;52.11;99845.09;5000048;28;20064;-38
2023/01/15 11:01:26;;;;;;;10.02;1.42;;;;;;;10.47;52.35;99868.59;5029712;28;20041;-41
2023/01/15 11:03:53;;;;;;;10.65;1.48;;;;;;;10.35;52.23;99856.47;4997570;28;20144;-39
2023/01/15 11:06:20;;;;;;;13.30;1.67;;;;;;;10.48;52.24;99854.69;5001258;28;20060;-45
2023/01/15 11:08:58;;;;;;;12.88;1.67;;;;;;;10.87;51.83;99864.09;5001391;28;20636;-43
2023/01/15 11:20:24;;;;;;;13.13;1.98;;;;;;;10.87;51.79;99869.31;4996894;28;20122;-46
2023/01/15 11:22:50;;;;;;;7.25;1.80;;;;;;;10.70;51.52;99851.13;5001208;28;20038;-41
2023/01/15 11:25:26;;;;;;;12.88;1.92;;;;;;;10.94;51.57;99864.06;4995965;28;20635;-42
2023/01/15 11:27:52;;;;;;;11.48;1.40;;;;;;;10.87;51.08;99854.53;4997330;28;20473;-39
2023/01/15 11:30:28;;;;;;;11.32;1.85;;;;;;;10.95;51.34;99844.97;4999874;28;20113;-39
2023/01/15 11:32:56;;;;;;;11.90;2.10;;;;;;;11.22;49.88;99848.31;4997365;28;20492;-43
2023/01/15 11:35:22;;;;;;;11.57;1.35;;;;;;;11.07;50.55;99843.16;5000440;28;20121;-42
2023/01/15 11:37:47;;;;;;;14.38;1.70;;;;;;;10.68;52.15;99838.97;5001567;28;20219;-42
2023/01/15 11:40:23;;;;;;;12.93;1.50;;;;;;;10.68;52.70;99847.66;4998504;28;20040;-41
2023/01/15 11:51:27;;;;;;;10.43;1.70;;;;;;;10.70;53.23;99850.25;4996844;28;20080;-44
2023/01/15 11:54:01;;;;;;;11.52;1.70;;;;;;;10.72;52.73;99859.84;4997069;28;20530;-42
2023/01/15 11:56:28;;;;;;;12.65;1.80;;;;;;;10.71;54.44;99865.91;5001054;28;20094;-43
2023/01/15 11:58:56;;;;;;;14.27;1.50;;;;;;;10.51;54.25;99859.88;4996508;28;20068;-45
2023/01/15 12:01:31;;;;;;;11.20;1.80;;;;;;;10.53;54.64;99851.19;4999555;28;20044;-43
2023/01/15 12:04:02;;;;;;;10.05;1.50;;;;;;;10.62;53.76;99863.31;4996798;28;20044;-41
2023/01/15 12:06:30;;;;;;;11.23;1.50;;;;;;;10.62;53.54;99870.28;5000569;28;20037;-42
2023/01/15 12:09:29;;;;;;;7.97;1.30;;;;;;;10.66;52.99;99872.88;4996683;28;20026;-41
2023/01/15 12:12:07;;;;;;;6.13;1.50;;;;;;;10.44;52.83;99852.94;4995821;28;20049;-43
2023/01/15 12:15:16;;;;;;;9.55;1.35;;;;;;;11.18;51.60;99851.78;5001023;28;20500;-42
2023/01/15 12:17:51;;;;;;;10.88;1.50;;;;;;;10.65;52.90;99865.06;5036885;28;20037;-45
2023/01/15 12:20:23;;;;;;;;;;;;;;;10.41;53.17;99869.47;5000351;28;20042;-47
2023/01/15 12:23:22;;;;;;;14.30;1.95;;;;;;;10.71;52.60;99871.13;5000925;28;19962;-43
2023/01/15 12:26:08;;;;;;;10.30;1.40;;;;;;;10.90;51.69;99854.53;4996968;28;20058;-43
2023/01/15 12:28:37;;;;;;;9.05;1.45;;;;;;;10.69;52.86;99846.78;4997524;28;20076;-43
2023/01/15 12:31:18;;;;;;;10.45;1.55;;;;;;;10.88;52.66;99853.69;4996315;28;20049;-42
2023/01/15 12:33:57;;;;;;;12.63;1.70;;;;;;;10.54;53.08;99858.16;5000173;28;20550;-42